This is the latest recevied weather packets stored in our database for station/object W7JFO-3. If no packets are shown the sender has not sent any weather packets the latest 10 day(s).
| Time | Temp. | Humidity | Pressure | Rain* | Wind** | Luminosity | Snow |
|---|---|---|---|---|---|---|---|
| 1777189626 | 0.56° C | 77% | 1010.1 hPa | 0 mm | - | 0 W/m² | - |
| 1777188726 | 0° C | 76% | 1010.2 hPa | 0 mm | - | 0 W/m² | - |
| 1777187826 | 0° C | 78% | 1010.4 hPa | 0 mm | - | 0 W/m² | - |
| 1777186926 | 0° C | 80% | 1010.4 hPa | 0 mm | - | 0 W/m² | - |
| 1777186026 | 0.56° C | 78% | 1010.5 hPa | 0 mm | - | 0 W/m² | - |
| 1777185126 | 0° C | 80% | 1010.6 hPa | 0 mm | - | 0 W/m² | - |
| 1777184226 | 0.56° C | 78% | 1010.7 hPa | 0 mm | - | 0 W/m² | - |
| 1777183326 | 0° C | 78% | 1010.7 hPa | 0 mm | - | 0 W/m² | - |
| 1777182426 | 0.56° C | 76% | 1010.7 hPa | 0 mm | - | 0 W/m² | - |
| 1777181526 | 0.56° C | 74% | 1010.8 hPa | 0 mm | - | 0 W/m² | - |
| 1777180626 | 1.11° C | 71% | 1011.1 hPa | 0 mm | - | 0 W/m² | - |
| 1777179726 | 1.11° C | 69% | 1010.8 hPa | 0 mm | - | 0 W/m² | - |
| 1777178826 | 1.11° C | 72% | 1010.8 hPa | 0 mm | - | 0 W/m² | - |
| 1777177926 | 1.67° C | 69% | 1010.9 hPa | 0 mm | - | 0 W/m² | - |
| 1777177026 | 1.67° C | 66% | 1011 hPa | 0 mm | - | 0 W/m² | - |
| 1777176126 | 1.67° C | 65% | 1011.3 hPa | 0 mm | - | 0 W/m² | - |
| 1777175226 | 2.22° C | 61% | 1011.5 hPa | 0 mm | - | 0 W/m² | - |
| 1777174326 | 2.22° C | 59% | 1011.6 hPa | 0 mm | - | 0 W/m² | - |
| 1777173426 | 2.78° C | 57% | 1011.5 hPa | 0 mm | - | 0 W/m² | - |
| 1777172527 | 2.22° C | 58% | 1011.3 hPa | 0 mm | - | 0 W/m² | - |
| 1777171627 | 2.78° C | 56% | 1011.2 hPa | 0 mm | - | 0 W/m² | - |
| 1777170727 | 2.78° C | 56% | 1011.1 hPa | 0 mm | - | 0 W/m² | - |
| 1777169827 | 3.33° C | 54% | 1011.1 hPa | 0 mm | - | 11 W/m² | - |
| 1777168927 | 3.89° C | 54% | 1011.1 hPa | 0 mm | - | 28 W/m² | - |
| 1777168027 | 3.89° C | 55% | 1011.1 hPa | 0 mm | - | 54 W/m² | - |
* Rain latest hour (hover to see other rain measurements)
** Current wind speed in m/s (hover to see current wind gust speed)